createdAt,value
2022-11-25T00:01:34.803Z,14.63
2022-11-25T00:04:03.200Z,15.38
2022-11-25T00:06:35.091Z,14.75
2022-11-25T00:09:08.295Z,16.25
2022-11-25T00:11:42.671Z,17.33
2022-11-25T00:14:15.659Z,17.08
2022-11-25T00:16:48.298Z,15.75
2022-11-25T00:19:17.928Z,15.93
2022-11-25T00:21:46.044Z,16.17
2022-11-25T00:24:16.194Z,17.10
2022-11-25T00:26:44.184Z,16.20
2022-11-25T00:29:14.485Z,15.82
2022-11-25T00:31:42.739Z,16.17
2022-11-25T00:34:14.603Z,17.02
2022-11-25T00:36:43.431Z,17.15
2022-11-25T00:39:17.428Z,14.98
2022-11-25T00:42:05.244Z,15.60
2022-11-25T00:44:36.923Z,14.02
2022-11-25T00:47:12.488Z,14.05
2022-11-25T00:49:43.368Z,15.60
2022-11-25T00:52:16.968Z,14.02
2022-11-25T00:54:47.825Z,15.13
2022-11-25T00:57:18.347Z,14.37
2022-11-25T00:59:46.591Z,14.68
2022-11-25T01:02:16.985Z,16.08
2022-11-25T01:04:46.871Z,16.30
2022-11-25T01:07:17.692Z,13.98
2022-11-25T01:09:45.733Z,15.68
2022-11-25T01:12:13.961Z,13.60
2022-11-25T01:14:42.156Z,16.00
2022-11-25T01:17:10.002Z,15.43
2022-11-25T01:19:40.551Z,16.42
2022-11-25T01:22:09.703Z,17.15
2022-11-25T01:24:37.846Z,15.60
2022-11-25T01:27:06.359Z,16.98
2022-11-25T01:29:34.301Z,17.10
2022-11-25T01:32:02.573Z,17.27
2022-11-25T01:34:33.648Z,18.83
2022-11-25T01:37:04.213Z,17.20
2022-11-25T01:39:33.411Z,15.95
2022-11-25T01:42:02.885Z,15.48
2022-11-25T01:44:32.806Z,16.40
2022-11-25T01:47:23.704Z,15.85
2022-11-25T01:50:06.375Z,16.52
2022-11-25T01:52:43.465Z,16.80
2022-11-25T01:55:17.712Z,16.23
2022-11-25T01:58:21.393Z,15.43
2022-11-25T02:00:53.129Z,16.13
2022-11-25T02:03:35.104Z,14.63
2022-11-25T02:06:20.950Z,15.85
2022-11-25T02:08:59.287Z,14.80
2022-11-25T02:11:30.908Z,15.68
2022-11-25T02:13:59.885Z,16.23
2022-11-25T02:16:27.978Z,15.27
2022-11-25T02:18:56.792Z,17.17
2022-11-25T02:21:52.903Z,16.23
2022-11-25T02:24:46.915Z,15.40
2022-11-25T02:27:15.445Z,17.27
2022-11-25T02:29:44.800Z,17.50
2022-11-25T02:32:12.871Z,18.10
2022-11-25T02:34:48.476Z,17.00
2022-11-25T02:37:20.766Z,17.98
2022-11-25T02:39:50.650Z,19.67
2022-11-25T02:42:22.897Z,19.35
2022-11-25T02:44:51.378Z,18.35
2022-11-25T02:47:19.359Z,18.45
2022-11-25T02:49:47.317Z,17.63
2022-11-25T02:52:15.669Z,21.23
2022-11-25T02:54:43.741Z,18.88
2022-11-25T02:57:11.860Z,20.02
2022-11-25T02:59:39.941Z,19.83
2022-11-25T03:02:07.797Z,19.88
2022-11-25T03:04:35.995Z,19.85
2022-11-25T03:07:04.613Z,20.55
2022-11-25T03:09:32.544Z,21.20
2022-11-25T03:12:19.458Z,18.48
2022-11-25T03:14:47.976Z,20.90
2022-11-25T03:17:15.990Z,19.95
2022-11-25T03:19:44.205Z,18.88
2022-11-25T03:22:13.213Z,19.90
2022-11-25T03:24:41.054Z,18.58
2022-11-25T03:27:09.904Z,18.65
2022-11-25T03:29:39.319Z,20.13
2022-11-25T03:32:09.706Z,19.15
2022-11-25T03:37:07.717Z,18.02
2022-11-25T03:39:35.786Z,17.77
2022-11-25T03:42:04.781Z,20.45
2022-11-25T03:44:32.852Z,19.67
2022-11-25T03:47:01.620Z,20.38
2022-11-25T03:49:30.790Z,21.90
2022-11-25T03:51:58.875Z,20.30
2022-11-25T03:54:27.253Z,19.63
2022-11-25T03:57:15.815Z,18.73
2022-11-25T03:59:44.290Z,21.98
2022-11-25T04:02:12.249Z,20.55
2022-11-25T04:04:40.512Z,21.02
2022-11-25T04:07:10.127Z,20.17
2022-11-25T04:09:38.202Z,20.05
2022-11-25T04:12:29.763Z,19.35
2022-11-25T04:15:06.998Z,19.02
2022-11-25T04:17:35.243Z,20.02
2022-11-25T04:20:04.273Z,21.50
2022-11-25T04:22:32.553Z,20.75
2022-11-25T04:25:02.935Z,19.42
2022-11-25T04:27:30.876Z,21.30
2022-11-25T04:29:58.756Z,19.27
2022-11-25T04:32:27.458Z,22.77
2022-11-25T04:34:57.915Z,21.38
2022-11-25T04:37:26.574Z,20.33
2022-11-25T04:39:55.898Z,19.13
2022-11-25T04:42:34.785Z,19.17
2022-11-25T04:45:24.969Z,21.65
2022-11-25T04:47:55.571Z,21.63
2022-11-25T04:50:25.063Z,21.25
2022-11-25T04:53:04.132Z,21.33
2022-11-25T04:55:32.925Z,20.48
2022-11-25T04:58:05.036Z,19.33
2022-11-25T05:00:35.594Z,19.35
2022-11-25T05:03:06.813Z,18.30
2022-11-25T05:05:39.494Z,20.02
2022-11-25T05:08:08.639Z,19.35
2022-11-25T05:10:37.031Z,18.25
2022-11-25T05:13:05.329Z,19.70
2022-11-25T05:16:57.638Z,17.98
2022-11-25T05:19:25.797Z,18.55
2022-11-25T05:21:54.292Z,17.63
2022-11-25T05:24:22.411Z,17.00
2022-11-25T05:26:54.428Z,18.00
2022-11-25T05:29:23.844Z,18.40
2022-11-25T05:31:52.135Z,17.77
2022-11-25T05:34:20.578Z,18.90
2022-11-25T05:36:49.423Z,18.30
2022-11-25T05:39:17.560Z,17.45
2022-11-25T05:42:04.619Z,17.13
2022-11-25T05:44:32.657Z,18.27
2022-11-25T05:47:00.957Z,17.08
2022-11-25T05:49:29.265Z,18.35
2022-11-25T05:51:58.545Z,18.35
2022-11-25T05:54:29.042Z,18.20
2022-11-25T05:56:58.762Z,18.10
2022-11-25T05:59:29.441Z,17.33
2022-11-25T06:02:12.553Z,17.40
2022-11-25T06:04:41.678Z,16.50
2022-11-25T06:07:09.992Z,16.98
2022-11-25T06:09:38.460Z,17.02
2022-11-25T06:12:07.620Z,18.40
2022-11-25T06:14:40.848Z,17.77
2022-11-25T06:17:08.814Z,18.88
2022-11-25T06:19:45.503Z,17.50
2022-11-25T06:22:13.437Z,18.33
2022-11-25T06:24:41.463Z,16.35
2022-11-25T06:27:11.110Z,17.73
2022-11-25T06:29:40.087Z,18.42
2022-11-25T06:32:08.016Z,17.73
2022-11-25T06:34:59.400Z,15.17
2022-11-25T06:37:45.439Z,16.65
2022-11-25T06:40:13.913Z,18.83
2022-11-25T06:42:43.507Z,16.73
2022-11-25T06:45:14.517Z,17.95
2022-11-25T06:47:43.003Z,17.60
2022-11-25T06:50:11.144Z,18.25
2022-11-25T06:52:39.086Z,17.33
2022-11-25T06:55:08.553Z,16.85
2022-11-25T06:57:36.629Z,16.15
2022-11-25T07:00:05.273Z,18.45
2022-11-25T07:02:39.950Z,17.23
2022-11-25T07:05:09.891Z,17.75
2022-11-25T07:07:37.946Z,17.65
2022-11-25T07:10:06.829Z,18.30
2022-11-25T07:12:35.547Z,16.15
2022-11-25T07:15:03.970Z,16.05
2022-11-25T07:17:32.385Z,17.30
2022-11-25T07:20:00.390Z,16.48
2022-11-25T07:22:28.564Z,15.88
2022-11-25T07:24:57.169Z,15.48
2022-11-25T07:27:25.112Z,17.63
2022-11-25T07:30:10.780Z,16.58
2022-11-25T07:32:41.074Z,15.95
2022-11-25T07:35:09.482Z,17.02
2022-11-25T07:37:37.327Z,16.98
2022-11-25T07:40:06.352Z,17.58
2022-11-25T07:42:34.588Z,16.90
2022-11-25T07:45:03.732Z,12.50
2022-11-25T07:47:46.780Z,11.48
2022-11-25T07:50:14.910Z,9.60
2022-11-25T07:52:42.751Z,9.43
2022-11-25T07:55:11.915Z,8.82
2022-11-25T07:57:39.905Z,8.55
2022-11-25T08:00:08.760Z,8.45
2022-11-25T08:02:42.947Z,9.07
2022-11-25T08:05:11.857Z,8.20
2022-11-25T08:07:39.809Z,7.65
2022-11-25T08:10:08.706Z,9.68
2022-11-25T08:12:36.774Z,9.90
2022-11-25T08:15:04.980Z,10.43
2022-11-25T08:17:33.513Z,10.02
2022-11-25T08:20:01.432Z,9.82
2022-11-25T08:22:29.272Z,8.52
2022-11-25T08:24:58.294Z,8.23
2022-11-25T08:27:26.383Z,8.73
2022-11-25T08:29:55.495Z,7.55
2022-11-25T08:32:23.704Z,7.65
2022-11-25T08:34:51.631Z,7.68
2022-11-25T08:37:19.623Z,8.05
2022-11-25T08:39:53.247Z,8.20
2022-11-25T08:42:21.620Z,8.15
2022-11-25T08:44:55.854Z,8.35
2022-11-25T08:47:24.512Z,8.77
2022-11-25T08:49:54.359Z,8.07
2022-11-25T08:52:23.265Z,8.73
2022-11-25T08:54:51.267Z,9.00
2022-11-25T08:57:19.236Z,7.75
2022-11-25T08:59:47.518Z,7.00
2022-11-25T09:02:17.971Z,8.25
2022-11-25T09:04:46.073Z,7.93
2022-11-25T09:07:14.297Z,8.77
2022-11-25T09:09:42.316Z,7.25
2022-11-25T09:12:10.531Z,6.93
2022-11-25T09:14:40.787Z,7.57
2022-11-25T09:17:11.598Z,7.00
2022-11-25T09:19:39.626Z,7.70
2022-11-25T09:22:08.283Z,7.80
2022-11-25T09:24:36.877Z,7.40
2022-11-25T09:27:05.353Z,7.80
2022-11-25T09:29:33.594Z,8.35
2022-11-25T09:32:01.893Z,7.75
2022-11-25T09:34:29.881Z,8.57
2022-11-25T09:36:57.894Z,8.82
2022-11-25T09:39:29.851Z,8.10
2022-11-25T09:42:52.747Z,8.50
2022-11-25T09:45:53.137Z,9.05
2022-11-25T09:48:34.082Z,8.13
2022-11-25T09:51:48.678Z,7.00
2022-11-25T09:54:22.942Z,6.50
2022-11-25T09:57:33.113Z,6.13
2022-11-25T10:00:07.781Z,7.57
2022-11-25T10:03:00.347Z,6.70
2022-11-25T10:05:41.578Z,6.22
2022-11-25T10:08:16.160Z,7.38
2022-11-25T10:10:56.660Z,7.40
2022-11-25T10:13:43.088Z,7.20
2022-11-25T10:16:33.193Z,6.95
2022-11-25T10:19:46.736Z,6.97
2022-11-25T10:22:29.661Z,7.53
2022-11-25T10:25:03.138Z,7.68
2022-11-25T10:27:56.609Z,7.00
2022-11-25T10:30:26.768Z,6.75
2022-11-25T10:33:21.165Z,6.85
2022-11-25T10:36:00.944Z,7.63
2022-11-25T10:38:57.103Z,8.57
2022-11-25T10:41:34.206Z,8.05
2022-11-25T10:44:03.334Z,8.32
2022-11-25T10:47:13.527Z,7.47
2022-11-25T10:50:20.206Z,8.57
2022-11-25T10:53:16.283Z,7.72
2022-11-25T10:56:10.541Z,8.23
2022-11-25T10:58:40.826Z,8.55
2022-11-25T11:01:25.729Z,8.95
2022-11-25T11:04:11.032Z,11.77
2022-11-25T11:06:42.517Z,9.95
2022-11-25T11:09:38.011Z,9.48
2022-11-25T11:12:26.167Z,10.15
2022-11-25T11:15:13.870Z,10.68
2022-11-25T11:17:42.147Z,9.70
2022-11-25T11:20:14.487Z,11.35
2022-11-25T11:23:08.638Z,10.23
2022-11-25T11:25:40.823Z,10.55
2022-11-25T11:31:07.987Z,9.52
2022-11-25T11:33:57.443Z,9.88
2022-11-25T11:36:40.810Z,10.45
2022-11-25T11:39:48.106Z,10.15
2022-11-25T11:42:43.501Z,10.02
2022-11-25T11:45:24.568Z,10.45
2022-11-25T11:48:28.885Z,10.47
2022-11-25T11:51:23.225Z,10.65
2022-11-25T11:54:17.913Z,12.02
2022-11-25T11:56:55.437Z,11.15
2022-11-25T11:59:49.116Z,10.30
2022-11-25T12:02:40.913Z,10.88
2022-11-25T12:05:11.599Z,10.02
2022-11-25T12:07:55.633Z,11.02
2022-11-25T12:10:28.155Z,10.15
2022-11-25T12:13:28.029Z,11.07
2022-11-25T12:16:13.990Z,12.07
2022-11-25T12:19:10.177Z,12.18
2022-11-25T12:22:09.538Z,11.45
2022-11-25T12:24:57.216Z,11.45
2022-11-25T12:27:40.543Z,11.13
2022-11-25T12:30:18.936Z,10.25
2022-11-25T12:33:06.572Z,10.75
2022-11-25T12:36:10.057Z,10.50
2022-11-25T12:39:01.507Z,10.00
2022-11-25T12:41:54.261Z,11.30
2022-11-25T12:44:38.130Z,12.02
2022-11-25T12:47:12.101Z,11.25
2022-11-25T12:49:47.219Z,12.95
2022-11-25T12:52:41.541Z,12.60
2022-11-25T12:55:26.165Z,13.00
2022-11-25T12:58:13.453Z,11.90
2022-11-25T13:01:07.353Z,11.32
2022-11-25T13:04:10.679Z,12.65
2022-11-25T13:06:47.988Z,12.20
2022-11-25T13:09:33.968Z,12.00
2022-11-25T13:12:30.343Z,10.07
2022-11-25T13:15:45.081Z,12.63
2022-11-25T13:18:26.751Z,10.02
2022-11-25T13:20:57.157Z,10.88
2022-11-25T13:23:28.938Z,11.93
2022-11-25T13:29:27.121Z,12.13
2022-11-25T13:32:00.775Z,11.38
2022-11-25T13:34:36.294Z,12.30
2022-11-25T13:37:38.279Z,9.68
2022-11-25T13:40:30.028Z,12.02
2022-11-25T13:43:00.658Z,11.98
2022-11-25T13:45:45.195Z,10.70
2022-11-25T13:48:18.887Z,11.68
2022-11-25T13:51:10.105Z,12.95
2022-11-25T13:53:38.513Z,12.73
2022-11-25T13:56:35.455Z,12.00
2022-11-25T13:59:14.163Z,10.57
2022-11-25T14:01:54.861Z,11.07
2022-11-25T14:05:11.092Z,11.48
2022-11-25T14:08:11.787Z,10.85
2022-11-25T14:11:10.559Z,10.68
2022-11-25T14:14:06.101Z,11.57
2022-11-25T14:16:43.009Z,10.98
2022-11-25T14:19:50.090Z,10.55
2022-11-25T14:22:38.479Z,11.25
2022-11-25T14:25:30.397Z,11.75
2022-11-25T14:28:34.906Z,11.27
2022-11-25T14:31:12.511Z,12.02
2022-11-25T14:33:59.535Z,12.10
2022-11-25T14:36:43.979Z,11.10
2022-11-25T14:39:31.503Z,9.82
2022-11-25T14:42:24.289Z,11.80
2022-11-25T14:44:59.601Z,11.38
2022-11-25T14:47:35.986Z,11.40
2022-11-25T14:53:11.387Z,12.30
2022-11-25T14:55:39.610Z,11.45
2022-11-25T14:58:11.912Z,10.55
2022-11-25T15:01:04.263Z,10.43
2022-11-25T15:03:32.199Z,11.38
2022-11-25T15:06:07.441Z,11.07
2022-11-25T15:08:42.973Z,10.27
2022-11-25T15:11:19.920Z,11.25
2022-11-25T15:14:02.370Z,11.98
2022-11-25T15:16:38.684Z,12.43
2022-11-25T15:19:18.111Z,13.52
2022-11-25T15:22:21.204Z,13.02
2022-11-25T15:24:50.167Z,12.60
2022-11-25T15:27:26.832Z,11.43
2022-11-25T15:29:57.496Z,12.45
2022-11-25T15:32:27.495Z,12.73
2022-11-25T15:34:59.966Z,13.98
2022-11-25T15:37:29.409Z,16.80
2022-11-25T15:40:38.253Z,16.48
2022-11-25T15:43:23.619Z,15.23
2022-11-25T15:45:57.616Z,16.67
2022-11-25T15:48:31.637Z,16.45
2022-11-25T15:51:15.741Z,16.02
2022-11-25T15:53:47.044Z,15.43
2022-11-25T15:56:23.565Z,17.23
2022-11-25T15:58:51.687Z,21.70
2022-11-25T16:01:22.950Z,22.13
2022-11-25T16:03:52.232Z,21.20
2022-11-25T16:06:32.451Z,18.88
2022-11-25T16:09:04.273Z,17.58
2022-11-25T16:11:45.375Z,18.73
2022-11-25T16:14:34.184Z,19.77
2022-11-25T16:17:10.578Z,20.95
2022-11-25T16:19:46.088Z,21.27
2022-11-25T16:22:20.359Z,22.95
2022-11-25T16:25:01.765Z,24.23
2022-11-25T16:27:33.901Z,23.90
2022-11-25T16:30:05.689Z,24.70
2022-11-25T16:32:34.417Z,21.73
2022-11-25T16:35:22.379Z,24.90
2022-11-25T16:37:50.590Z,17.17
2022-11-25T16:40:19.449Z,16.30
2022-11-25T16:42:50.482Z,15.73
2022-11-25T16:45:22.502Z,17.05
2022-11-25T16:47:51.061Z,17.55
2022-11-25T16:50:20.325Z,16.23
2022-11-25T16:52:48.390Z,17.65
2022-11-25T16:55:18.748Z,19.02
2022-11-25T16:57:47.099Z,19.17
2022-11-25T17:00:17.430Z,18.90
2022-11-25T17:02:45.929Z,18.58
2022-11-25T17:05:23.318Z,19.80
2022-11-25T17:07:52.393Z,18.60
2022-11-25T17:10:21.696Z,22.17
2022-11-25T17:12:50.491Z,22.88
2022-11-25T17:15:23.759Z,24.52
2022-11-25T17:17:52.025Z,22.70
2022-11-25T17:20:24.970Z,24.33
2022-11-25T17:22:54.536Z,24.92
2022-11-25T17:25:28.224Z,23.65
2022-11-25T17:28:00.976Z,22.75
2022-11-25T17:30:29.336Z,22.58
2022-11-25T17:33:07.562Z,24.75
2022-11-25T17:35:35.665Z,24.25
2022-11-25T17:38:20.072Z,25.20
2022-11-25T17:40:48.353Z,24.33
2022-11-25T17:43:19.272Z,25.70
2022-11-25T17:45:47.581Z,26.73
2022-11-25T17:48:18.455Z,28.98
2022-11-25T17:50:47.364Z,28.97
2022-11-25T17:53:15.215Z,25.15
2022-11-25T17:55:43.266Z,25.45
2022-11-25T17:58:14.819Z,23.90
2022-11-25T18:00:45.240Z,36.05
2022-11-25T18:03:15.071Z,30.73
2022-11-25T18:05:43.886Z,30.90
2022-11-25T18:08:12.366Z,29.17
2022-11-25T18:10:40.385Z,23.08
2022-11-25T18:13:08.326Z,24.35
2022-11-25T18:15:36.666Z,25.48
2022-11-25T18:18:24.883Z,25.42
2022-11-25T18:20:53.782Z,27.23
2022-11-25T18:23:22.553Z,27.92
2022-11-25T18:25:51.723Z,26.85
2022-11-25T18:28:24.844Z,28.00
2022-11-25T18:30:55.956Z,28.63
2022-11-25T18:33:24.148Z,25.70
2022-11-25T18:35:52.409Z,24.60
2022-11-25T18:38:20.422Z,25.48
2022-11-25T18:40:53.253Z,25.10
2022-11-25T18:43:25.116Z,29.52
2022-11-25T18:45:54.512Z,29.42
2022-11-25T18:48:25.753Z,30.30
2022-11-25T18:50:56.849Z,31.00
2022-11-25T18:53:25.746Z,31.75
2022-11-25T18:55:53.979Z,32.47
2022-11-25T18:58:32.938Z,32.30
2022-11-25T19:01:11.007Z,32.40
2022-11-25T19:03:39.687Z,34.20
2022-11-25T19:06:15.313Z,32.30
2022-11-25T19:08:44.045Z,30.17
2022-11-25T19:11:34.195Z,31.58
2022-11-25T19:14:29.663Z,28.05
2022-11-25T19:17:06.434Z,35.65
2022-11-25T19:19:35.668Z,32.60
2022-11-25T19:22:10.094Z,32.30
2022-11-25T19:24:38.783Z,35.58
2022-11-25T19:27:14.645Z,34.20
2022-11-25T19:29:43.572Z,39.10
2022-11-25T19:32:28.194Z,35.78
2022-11-25T19:35:05.772Z,38.28
2022-11-25T19:37:34.248Z,30.60
2022-11-25T19:40:03.160Z,31.42
2022-11-25T19:42:32.005Z,28.67
2022-11-25T19:45:00.767Z,30.20
2022-11-25T19:47:29.508Z,29.63
2022-11-25T19:50:01.543Z,30.15
2022-11-25T19:52:37.902Z,32.03
2022-11-25T19:55:22.237Z,31.75
2022-11-25T19:57:51.649Z,31.63
2022-11-25T20:00:24.875Z,30.65
2022-11-25T20:02:56.795Z,31.23
2022-11-25T20:05:37.027Z,30.08
2022-11-25T20:08:21.536Z,29.58
2022-11-25T20:10:50.198Z,29.02
2022-11-25T20:13:18.212Z,29.67
2022-11-25T20:15:46.857Z,30.02
2022-11-25T20:18:19.893Z,30.23
2022-11-25T20:20:56.388Z,31.85
2022-11-25T20:23:43.763Z,29.45
2022-11-25T20:26:26.921Z,29.20
2022-11-25T20:28:55.530Z,31.70
2022-11-25T20:31:28.745Z,31.38
2022-11-25T20:33:58.525Z,27.23
2022-11-25T20:36:32.218Z,28.48
2022-11-25T20:39:02.340Z,29.38
2022-11-25T20:41:30.924Z,29.92
2022-11-25T20:43:59.643Z,28.83
2022-11-25T20:46:30.262Z,27.75
2022-11-25T20:49:11.924Z,28.05
2022-11-25T20:51:41.908Z,27.60
2022-11-25T20:54:11.772Z,28.58
2022-11-25T20:56:40.300Z,26.42
2022-11-25T20:59:22.077Z,26.70
2022-11-25T21:01:51.554Z,27.30
2022-11-25T21:04:19.632Z,30.25
2022-11-25T21:06:47.878Z,27.35
2022-11-25T21:09:21.687Z,28.60
2022-11-25T21:11:50.203Z,31.48
2022-11-25T21:14:19.908Z,29.55
2022-11-25T21:16:48.169Z,30.77
2022-11-25T21:19:16.333Z,31.23
2022-11-25T21:21:50.484Z,27.27
2022-11-25T21:24:37.203Z,29.00
2022-11-25T21:27:15.135Z,27.67
2022-11-25T21:29:45.866Z,26.45
2022-11-25T21:32:26.544Z,27.20
2022-11-25T21:34:55.750Z,28.70
2022-11-25T21:37:35.925Z,26.23
2022-11-25T21:40:06.154Z,26.27
2022-11-25T21:42:34.608Z,26.10
2022-11-25T21:45:02.753Z,25.15
2022-11-25T21:47:31.709Z,27.10
2022-11-25T21:50:00.202Z,25.10
2022-11-25T21:52:28.263Z,25.35
2022-11-25T21:54:56.986Z,25.00
2022-11-25T21:57:28.852Z,25.70
2022-11-25T22:02:25.633Z,23.33
2022-11-25T22:04:54.307Z,23.50
2022-11-25T22:07:26.345Z,23.55
2022-11-25T22:09:57.523Z,22.70
2022-11-25T22:12:30.754Z,24.20
2022-11-25T22:15:00.951Z,23.77
2022-11-25T22:17:30.069Z,22.67
2022-11-25T22:19:58.323Z,21.98
2022-11-25T22:22:26.438Z,22.40
2022-11-25T22:24:54.399Z,23.30
2022-11-25T22:27:26.082Z,23.48
2022-11-25T22:29:55.871Z,22.20
2022-11-25T22:32:25.032Z,21.02
2022-11-25T22:34:53.620Z,19.88
2022-11-25T22:37:24.533Z,18.40
2022-11-25T22:39:52.516Z,18.23
2022-11-25T22:42:29.588Z,19.00
2022-11-25T22:45:00.126Z,18.85
2022-11-25T22:47:42.491Z,18.27
2022-11-25T22:50:28.179Z,17.05
2022-11-25T22:52:57.848Z,17.15
2022-11-25T22:55:31.600Z,17.15
2022-11-25T22:58:02.076Z,16.83
2022-11-25T23:00:36.278Z,18.05
2022-11-25T23:03:07.374Z,18.38
2022-11-25T23:05:39.575Z,17.58
2022-11-25T23:08:27.280Z,17.40
2022-11-25T23:10:56.946Z,18.95
2022-11-25T23:13:25.752Z,19.27
2022-11-25T23:15:59.851Z,19.48
2022-11-25T23:18:41.270Z,18.05
2022-11-25T23:21:24.709Z,18.63
2022-11-25T23:23:52.799Z,19.30
2022-11-25T23:26:20.684Z,19.13
2022-11-25T23:28:50.174Z,18.05
2022-11-25T23:31:18.579Z,17.52
2022-11-25T23:33:51.110Z,16.95
2022-11-25T23:36:29.765Z,17.55
2022-11-25T23:39:03.982Z,17.00
2022-11-25T23:41:34.604Z,18.52
2022-11-25T23:44:36.748Z,18.70
2022-11-25T23:47:11.922Z,18.30
2022-11-25T23:49:46.485Z,19.70
2022-11-25T23:52:22.750Z,18.98
2022-11-25T23:54:52.713Z,19.38
2022-11-25T23:57:33.745Z,18.85
